sensor_id;sensor_type;location;lat;lon;timestamp;temperature;humidity
20881;DHT22;10600;53.096;8.802;2023-04-06T00:00:45;1.70;99.90
20881;DHT22;10600;53.096;8.802;2023-04-06T00:01:46;1.70;99.90
20881;DHT22;10600;53.096;8.802;2023-04-06T00:02:47;1.60;99.90
20881;DHT22;10600;53.096;8.802;2023-04-06T00:03:48;1.60;99.90
20881;DHT22;10600;53.096;8.802;2023-04-06T00:04:48;1.60;99.90
20881;DHT22;10600;53.096;8.802;2023-04-06T00:05:49;1.50;99.90
20881;DHT22;10600;53.096;8.802;2023-04-06T00:06:50;1.50;99.90
20881;DHT22;10600;53.096;8.802;2023-04-06T00:07:50;1.50;99.90
20881;DHT22;10600;53.096;8.802;2023-04-06T00:08:51;1.40;99.90
20881;DHT22;10600;53.096;8.802;2023-04-06T00:09:52;1.50;99.90
20881;DHT22;10600;53.096;8.802;2023-04-06T00:10:52;1.40;99.90
20881;DHT22;10600;53.096;8.802;2023-04-06T00:11:53;1.50;99.90
20881;DHT22;10600;53.096;8.802;2023-04-06T00:12:54;1.40;99.90
20881;DHT22;10600;53.096;8.802;2023-04-06T00:13:57;1.40;99.90
20881;DHT22;10600;53.096;8.802;2023-04-06T00:14:57;1.40;99.90
20881;DHT22;10600;53.096;8.802;2023-04-06T00:15:58;1.40;99.90
20881;DHT22;10600;53.096;8.802;2023-04-06T00:16:59;1.40;99.90
20881;DHT22;10600;53.096;8.802;2023-04-06T00:18:00;1.40;99.90
20881;DHT22;10600;53.096;8.802;2023-04-06T00:19:00;1.40;99.90
20881;DHT22;10600;53.096;8.802;2023-04-06T00:20:01;1.30;99.90
20881;DHT22;10600;53.096;8.802;2023-04-06T00:21:02;1.30;99.90
20881;DHT22;10600;53.096;8.802;2023-04-06T00:22:03;1.30;99.90
20881;DHT22;10600;53.096;8.802;2023-04-06T00:23:04;1.20;99.90
20881;DHT22;10600;53.096;8.802;2023-04-06T00:24:05;1.20;99.90
20881;DHT22;10600;53.096;8.802;2023-04-06T00:25:06;1.20;99.90
20881;DHT22;10600;53.096;8.802;2023-04-06T00:26:07;1.20;99.90
20881;DHT22;10600;53.096;8.802;2023-04-06T00:27:08;1.20;99.90
20881;DHT22;10600;53.096;8.802;2023-04-06T00:28:09;1.20;99.90
20881;DHT22;10600;53.096;8.802;2023-04-06T00:29:10;1.20;99.90
20881;DHT22;10600;53.096;8.802;2023-04-06T00:30:10;1.20;99.90
20881;DHT22;10600;53.096;8.802;2023-04-06T00:31:11;1.30;99.90
20881;DHT22;10600;53.096;8.802;2023-04-06T00:32:12;1.40;99.90
20881;DHT22;10600;53.096;8.802;2023-04-06T00:33:12;1.30;99.90
20881;DHT22;10600;53.096;8.802;2023-04-06T00:34:13;1.40;99.90
20881;DHT22;10600;53.096;8.802;2023-04-06T00:35:16;1.40;99.90
20881;DHT22;10600;53.096;8.802;2023-04-06T00:36:16;1.40;99.90
20881;DHT22;10600;53.096;8.802;2023-04-06T00:37:17;1.50;99.90
20881;DHT22;10600;53.096;8.802;2023-04-06T00:38:19;1.50;99.90
20881;DHT22;10600;53.096;8.802;2023-04-06T00:39:21;1.50;99.90
20881;DHT22;10600;53.096;8.802;2023-04-06T00:40:22;1.50;99.90
20881;DHT22;10600;53.096;8.802;2023-04-06T00:41:22;1.50;99.90
20881;DHT22;10600;53.096;8.802;2023-04-06T00:42:24;1.50;99.90
20881;DHT22;10600;53.096;8.802;2023-04-06T00:43:27;1.50;99.90
20881;DHT22;10600;53.096;8.802;2023-04-06T00:44:28;1.50;99.90
20881;DHT22;10600;53.096;8.802;2023-04-06T00:45:29;1.50;99.90
20881;DHT22;10600;53.096;8.802;2023-04-06T00:46:29;1.50;99.90
20881;DHT22;10600;53.096;8.802;2023-04-06T00:47:30;1.40;99.90
20881;DHT22;10600;53.096;8.802;2023-04-06T00:48:31;1.40;99.90
20881;DHT22;10600;53.096;8.802;2023-04-06T00:49:34;1.40;99.90
20881;DHT22;10600;53.096;8.802;2023-04-06T00:50:35;1.30;99.90
20881;DHT22;10600;53.096;8.802;2023-04-06T00:51:36;1.30;99.90
20881;DHT22;10600;53.096;8.802;2023-04-06T00:52:36;1.30;99.90
20881;DHT22;10600;53.096;8.802;2023-04-06T00:53:37;1.30;99.90
20881;DHT22;10600;53.096;8.802;2023-04-06T00:54:38;1.20;99.90
20881;DHT22;10600;53.096;8.802;2023-04-06T00:55:38;1.20;99.90
20881;DHT22;10600;53.096;8.802;2023-04-06T00:56:41;1.10;99.90
20881;DHT22;10600;53.096;8.802;2023-04-06T00:57:42;1.10;99.90
20881;DHT22;10600;53.096;8.802;2023-04-06T00:58:43;1.00;99.90
20881;DHT22;10600;53.096;8.802;2023-04-06T00:59:44;1.00;99.90
20881;DHT22;10600;53.096;8.802;2023-04-06T01:00:45;1.00;99.90
20881;DHT22;10600;53.096;8.802;2023-04-06T01:01:46;0.90;99.90
20881;DHT22;10600;53.096;8.802;2023-04-06T01:02:46;0.90;99.90
20881;DHT22;10600;53.096;8.802;2023-04-06T01:03:48;0.90;99.90
20881;DHT22;10600;53.096;8.802;2023-04-06T01:04:50;0.90;99.90
20881;DHT22;10600;53.096;8.802;2023-04-06T01:05:52;0.90;99.90
20881;DHT22;10600;53.096;8.802;2023-04-06T01:06:58;0.90;99.90
20881;DHT22;10600;53.096;8.802;2023-04-06T01:07:59;0.90;99.90
20881;DHT22;10600;53.096;8.802;2023-04-06T01:09:00;0.90;99.90
20881;DHT22;10600;53.096;8.802;2023-04-06T01:10:00;0.90;99.90
20881;DHT22;10600;53.096;8.802;2023-04-06T01:11:03;0.90;99.90
20881;DHT22;10600;53.096;8.802;2023-04-06T01:12:04;1.00;99.90
20881;DHT22;10600;53.096;8.802;2023-04-06T01:13:04;1.00;99.90
20881;DHT22;10600;53.096;8.802;2023-04-06T01:14:05;1.00;99.90
20881;DHT22;10600;53.096;8.802;2023-04-06T01:15:07;1.00;99.90
20881;DHT22;10600;53.096;8.802;2023-04-06T01:16:07;1.10;99.90
20881;DHT22;10600;53.096;8.802;2023-04-06T01:17:10;1.10;99.90
20881;DHT22;10600;53.096;8.802;2023-04-06T01:18:10;1.10;99.90
20881;DHT22;10600;53.096;8.802;2023-04-06T01:19:12;1.10;99.90
20881;DHT22;10600;53.096;8.802;2023-04-06T01:20:13;1.10;99.90
20881;DHT22;10600;53.096;8.802;2023-04-06T01:21:14;1.10;99.90
20881;DHT22;10600;53.096;8.802;2023-04-06T01:22:17;1.10;99.90
20881;DHT22;10600;53.096;8.802;2023-04-06T01:23:18;1.10;99.90
20881;DHT22;10600;53.096;8.802;2023-04-06T01:24:20;1.10;99.90
20881;DHT22;10600;53.096;8.802;2023-04-06T01:25:21;1.10;99.90
20881;DHT22;10600;53.096;8.802;2023-04-06T01:26:21;1.10;99.90
20881;DHT22;10600;53.096;8.802;2023-04-06T01:27:22;1.10;99.90
20881;DHT22;10600;53.096;8.802;2023-04-06T01:28:23;1.10;99.90
20881;DHT22;10600;53.096;8.802;2023-04-06T01:29:24;1.10;99.90
20881;DHT22;10600;53.096;8.802;2023-04-06T01:30:25;1.00;99.90
20881;DHT22;10600;53.096;8.802;2023-04-06T01:31:26;1.00;99.90
20881;DHT22;10600;53.096;8.802;2023-04-06T01:32:26;1.00;99.90
20881;DHT22;10600;53.096;8.802;2023-04-06T01:33:27;1.00;99.90
20881;DHT22;10600;53.096;8.802;2023-04-06T01:34:28;1.00;99.90
20881;DHT22;10600;53.096;8.802;2023-04-06T01:35:29;1.00;99.90
20881;DHT22;10600;53.096;8.802;2023-04-06T01:36:30;1.00;99.90
20881;DHT22;10600;53.096;8.802;2023-04-06T01:37:31;0.90;99.90
20881;DHT22;10600;53.096;8.802;2023-04-06T01:38:33;0.90;99.90
20881;DHT22;10600;53.096;8.802;2023-04-06T01:39:33;0.90;99.90
20881;DHT22;10600;53.096;8.802;2023-04-06T01:40:34;0.90;99.90
20881;DHT22;10600;53.096;8.802;2023-04-06T01:41:35;0.90;99.90
20881;DHT22;10600;53.096;8.802;2023-04-06T01:42:36;0.90;99.90
20881;DHT22;10600;53.096;8.802;2023-04-06T01:43:36;0.90;99.90
20881;DHT22;10600;53.096;8.802;2023-04-06T01:44:37;0.90;99.90
20881;DHT22;10600;53.096;8.802;2023-04-06T01:45:38;0.90;99.90
20881;DHT22;10600;53.096;8.802;2023-04-06T01:46:38;0.90;99.90
20881;DHT22;10600;53.096;8.802;2023-04-06T01:47:39;0.90;99.90
20881;DHT22;10600;53.096;8.802;2023-04-06T01:48:41;1.00;99.90
20881;DHT22;10600;53.096;8.802;2023-04-06T01:49:41;1.00;99.90
20881;DHT22;10600;53.096;8.802;2023-04-06T01:50:42;1.00;99.90
20881;DHT22;10600;53.096;8.802;2023-04-06T01:51:43;1.00;99.90
20881;DHT22;10600;53.096;8.802;2023-04-06T01:52:43;1.00;99.90
20881;DHT22;10600;53.096;8.802;2023-04-06T01:53:44;1.00;99.90
20881;DHT22;10600;53.096;8.802;2023-04-06T01:54:45;1.00;99.90
20881;DHT22;10600;53.096;8.802;2023-04-06T01:55:45;1.00;99.90
20881;DHT22;10600;53.096;8.802;2023-04-06T01:56:47;1.00;99.90
20881;DHT22;10600;53.096;8.802;2023-04-06T01:57:49;1.00;99.90
20881;DHT22;10600;53.096;8.802;2023-04-06T01:58:49;1.00;99.90
20881;DHT22;10600;53.096;8.802;2023-04-06T01:59:50;1.00;99.90
20881;DHT22;10600;53.096;8.802;2023-04-06T02:00:51;1.00;99.90
20881;DHT22;10600;53.096;8.802;2023-04-06T02:01:51;1.00;99.90
20881;DHT22;10600;53.096;8.802;2023-04-06T02:02:52;1.00;99.90
20881;DHT22;10600;53.096;8.802;2023-04-06T02:03:53;1.00;99.90
20881;DHT22;10600;53.096;8.802;2023-04-06T02:04:53;1.00;99.90
20881;DHT22;10600;53.096;8.802;2023-04-06T02:05:54;0.90;99.90
20881;DHT22;10600;53.096;8.802;2023-04-06T02:06:55;0.90;99.90
20881;DHT22;10600;53.096;8.802;2023-04-06T02:07:56;0.90;99.90
20881;DHT22;10600;53.096;8.802;2023-04-06T02:08:57;0.90;99.90
20881;DHT22;10600;53.096;8.802;2023-04-06T02:09:57;0.90;99.90
20881;DHT22;10600;53.096;8.802;2023-04-06T02:10:58;0.90;99.90
20881;DHT22;10600;53.096;8.802;2023-04-06T02:11:59;0.90;99.90
20881;DHT22;10600;53.096;8.802;2023-04-06T02:13:01;0.90;99.90
20881;DHT22;10600;53.096;8.802;2023-04-06T02:14:01;0.90;99.90
20881;DHT22;10600;53.096;8.802;2023-04-06T02:15:02;0.90;99.90
20881;DHT22;10600;53.096;8.802;2023-04-06T02:16:03;0.80;99.90
20881;DHT22;10600;53.096;8.802;2023-04-06T02:17:04;0.80;99.90
20881;DHT22;10600;53.096;8.802;2023-04-06T02:18:05;0.80;99.90
20881;DHT22;10600;53.096;8.802;2023-04-06T02:19:06;0.70;99.90
20881;DHT22;10600;53.096;8.802;2023-04-06T02:20:07;0.70;99.90
20881;DHT22;10600;53.096;8.802;2023-04-06T02:21:08;0.70;99.90
20881;DHT22;10600;53.096;8.802;2023-04-06T02:22:09;0.70;99.90
20881;DHT22;10600;53.096;8.802;2023-04-06T02:23:10;0.70;99.90
20881;DHT22;10600;53.096;8.802;2023-04-06T02:24:11;0.70;99.90
20881;DHT22;10600;53.096;8.802;2023-04-06T02:25:12;0.70;99.90
20881;DHT22;10600;53.096;8.802;2023-04-06T02:26:13;0.60;99.90
20881;DHT22;10600;53.096;8.802;2023-04-06T02:27:14;0.60;99.90
20881;DHT22;10600;53.096;8.802;2023-04-06T02:28:15;0.50;99.90
20881;DHT22;10600;53.096;8.802;2023-04-06T02:29:16;0.50;99.90
20881;DHT22;10600;53.096;8.802;2023-04-06T02:30:16;0.50;99.90
20881;DHT22;10600;53.096;8.802;2023-04-06T02:31:17;0.40;99.90
20881;DHT22;10600;53.096;8.802;2023-04-06T02:32:18;0.40;99.90
20881;DHT22;10600;53.096;8.802;2023-04-06T02:33:18;0.40;99.90
20881;DHT22;10600;53.096;8.802;2023-04-06T02:34:19;0.40;99.90
20881;DHT22;10600;53.096;8.802;2023-04-06T02:35:20;0.40;99.90
20881;DHT22;10600;53.096;8.802;2023-04-06T02:36:21;0.40;99.90
20881;DHT22;10600;53.096;8.802;2023-04-06T02:37:21;0.30;99.90
20881;DHT22;10600;53.096;8.802;2023-04-06T02:38:24;0.30;99.90
20881;DHT22;10600;53.096;8.802;2023-04-06T02:39:25;0.30;99.90
20881;DHT22;10600;53.096;8.802;2023-04-06T02:40:25;0.30;99.90
20881;DHT22;10600;53.096;8.802;2023-04-06T02:41:26;0.30;99.90
20881;DHT22;10600;53.096;8.802;2023-04-06T02:42:27;0.30;99.90
20881;DHT22;10600;53.096;8.802;2023-04-06T02:43:27;0.30;99.90
20881;DHT22;10600;53.096;8.802;2023-04-06T02:44:29;0.30;99.90
20881;DHT22;10600;53.096;8.802;2023-04-06T02:45:29;0.30;99.90
20881;DHT22;10600;53.096;8.802;2023-04-06T02:46:30;0.30;99.90
20881;DHT22;10600;53.096;8.802;2023-04-06T02:47:31;0.30;99.90
20881;DHT22;10600;53.096;8.802;2023-04-06T02:48:32;0.30;99.90
20881;DHT22;10600;53.096;8.802;2023-04-06T02:49:32;0.30;99.90
20881;DHT22;10600;53.096;8.802;2023-04-06T02:50:33;0.30;99.90
20881;DHT22;10600;53.096;8.802;2023-04-06T02:51:34;0.40;99.90
20881;DHT22;10600;53.096;8.802;2023-04-06T02:52:34;0.40;99.90
20881;DHT22;10600;53.096;8.802;2023-04-06T02:53:35;0.40;99.90
20881;DHT22;10600;53.096;8.802;2023-04-06T02:54:36;0.40;99.90
20881;DHT22;10600;53.096;8.802;2023-04-06T02:55:36;0.40;99.90
20881;DHT22;10600;53.096;8.802;2023-04-06T02:56:37;0.40;99.90
20881;DHT22;10600;53.096;8.802;2023-04-06T02:57:38;0.40;99.90
20881;DHT22;10600;53.096;8.802;2023-04-06T02:58:38;0.40;99.90
20881;DHT22;10600;53.096;8.802;2023-04-06T02:59:39;0.40;99.90
20881;DHT22;10600;53.096;8.802;2023-04-06T03:00:40;0.40;99.90
20881;DHT22;10600;53.096;8.802;2023-04-06T03:01:40;0.40;99.90
20881;DHT22;10600;53.096;8.802;2023-04-06T03:02:41;0.40;99.90
20881;DHT22;10600;53.096;8.802;2023-04-06T03:03:42;0.40;99.90
20881;DHT22;10600;53.096;8.802;2023-04-06T03:04:44;0.40;99.90
20881;DHT22;10600;53.096;8.802;2023-04-06T03:05:45;0.40;99.90
20881;DHT22;10600;53.096;8.802;2023-04-06T03:06:46;0.40;99.90
20881;DHT22;10600;53.096;8.802;2023-04-06T03:07:47;0.40;99.90
20881;DHT22;10600;53.096;8.802;2023-04-06T03:08:47;0.40;99.90
20881;DHT22;10600;53.096;8.802;2023-04-06T03:09:48;0.40;99.90
20881;DHT22;10600;53.096;8.802;2023-04-06T03:10:49;0.40;99.90
20881;DHT22;10600;53.096;8.802;2023-04-06T03:11:49;0.40;99.90
20881;DHT22;10600;53.096;8.802;2023-04-06T03:12:50;0.40;99.90
20881;DHT22;10600;53.096;8.802;2023-04-06T03:13:51;0.40;99.90
20881;DHT22;10600;53.096;8.802;2023-04-06T03:14:51;0.40;99.90
20881;DHT22;10600;53.096;8.802;2023-04-06T03:15:52;0.40;99.90
20881;DHT22;10600;53.096;8.802;2023-04-06T03:16:53;0.40;99.90
20881;DHT22;10600;53.096;8.802;2023-04-06T03:17:53;0.40;99.90
20881;DHT22;10600;53.096;8.802;2023-04-06T03:18:54;0.40;99.90
20881;DHT22;10600;53.096;8.802;2023-04-06T03:19:55;0.40;99.90
20881;DHT22;10600;53.096;8.802;2023-04-06T03:20:55;0.40;99.90
20881;DHT22;10600;53.096;8.802;2023-04-06T03:21:56;0.40;99.90
20881;DHT22;10600;53.096;8.802;2023-04-06T03:22:57;0.40;99.90
20881;DHT22;10600;53.096;8.802;2023-04-06T03:23:58;0.40;99.90
20881;DHT22;10600;53.096;8.802;2023-04-06T03:24:59;0.40;99.90
20881;DHT22;10600;53.096;8.802;2023-04-06T03:26:00;0.50;99.90
20881;DHT22;10600;53.096;8.802;2023-04-06T03:27:01;0.50;99.90
20881;DHT22;10600;53.096;8.802;2023-04-06T03:28:02;0.50;99.90
20881;DHT22;10600;53.096;8.802;2023-04-06T03:29:02;0.50;99.90
20881;DHT22;10600;53.096;8.802;2023-04-06T03:30:03;0.50;99.90
20881;DHT22;10600;53.096;8.802;2023-04-06T03:31:04;0.50;99.90
20881;DHT22;10600;53.096;8.802;2023-04-06T03:32:05;0.50;99.90
20881;DHT22;10600;53.096;8.802;2023-04-06T03:33:05;0.40;99.90
20881;DHT22;10600;53.096;8.802;2023-04-06T03:34:06;0.40;99.90
20881;DHT22;10600;53.096;8.802;2023-04-06T03:35:07;0.40;99.90
20881;DHT22;10600;53.096;8.802;2023-04-06T03:36:08;0.40;99.90
20881;DHT22;10600;53.096;8.802;2023-04-06T03:37:09;0.40;99.90
20881;DHT22;10600;53.096;8.802;2023-04-06T03:38:09;0.40;99.90
20881;DHT22;10600;53.096;8.802;2023-04-06T03:39:10;0.40;99.90
20881;DHT22;10600;53.096;8.802;2023-04-06T03:40:11;0.30;99.90
20881;DHT22;10600;53.096;8.802;2023-04-06T03:41:12;0.30;99.90
20881;DHT22;10600;53.096;8.802;2023-04-06T03:42:12;0.30;99.90
20881;DHT22;10600;53.096;8.802;2023-04-06T03:43:13;0.30;99.90
20881;DHT22;10600;53.096;8.802;2023-04-06T03:44:13;0.30;99.90
20881;DHT22;10600;53.096;8.802;2023-04-06T03:45:15;0.20;99.90
20881;DHT22;10600;53.096;8.802;2023-04-06T03:46:15;0.20;99.90
20881;DHT22;10600;53.096;8.802;2023-04-06T03:47:16;0.30;99.90
20881;DHT22;10600;53.096;8.802;2023-04-06T03:48:17;0.30;99.90
20881;DHT22;10600;53.096;8.802;2023-04-06T03:49:17;0.30;99.90
20881;DHT22;10600;53.096;8.802;2023-04-06T03:50:18;0.30;99.90
20881;DHT22;10600;53.096;8.802;2023-04-06T03:51:19;0.30;99.90
20881;DHT22;10600;53.096;8.802;2023-04-06T03:52:19;0.30;99.90
20881;DHT22;10600;53.096;8.802;2023-04-06T03:53:23;0.20;99.90
20881;DHT22;10600;53.096;8.802;2023-04-06T03:54:23;0.20;99.90
20881;DHT22;10600;53.096;8.802;2023-04-06T03:55:24;0.20;99.90
20881;DHT22;10600;53.096;8.802;2023-04-06T03:56:25;0.30;99.90
20881;DHT22;10600;53.096;8.802;2023-04-06T03:57:25;0.30;99.90
20881;DHT22;10600;53.096;8.802;2023-04-06T03:58:26;0.30;99.90
20881;DHT22;10600;53.096;8.802;2023-04-06T03:59:27;0.30;99.90
20881;DHT22;10600;53.096;8.802;2023-04-06T04:00:28;0.40;99.90
20881;DHT22;10600;53.096;8.802;2023-04-06T04:01:28;0.40;99.90
20881;DHT22;10600;53.096;8.802;2023-04-06T04:02:29;0.50;99.90
20881;DHT22;10600;53.096;8.802;2023-04-06T04:03:30;0.60;99.90
20881;DHT22;10600;53.096;8.802;2023-04-06T04:04:30;0.60;99.90
20881;DHT22;10600;53.096;8.802;2023-04-06T04:05:31;0.70;99.90
20881;DHT22;10600;53.096;8.802;2023-04-06T04:06:32;0.70;99.90
20881;DHT22;10600;53.096;8.802;2023-04-06T04:07:32;0.70;99.90
20881;DHT22;10600;53.096;8.802;2023-04-06T04:08:33;0.70;99.90
20881;DHT22;10600;53.096;8.802;2023-04-06T04:09:34;0.70;99.90
20881;DHT22;10600;53.096;8.802;2023-04-06T04:10:34;0.70;99.90
20881;DHT22;10600;53.096;8.802;2023-04-06T04:11:35;0.70;99.90
20881;DHT22;10600;53.096;8.802;2023-04-06T04:12:36;0.70;99.90
20881;DHT22;10600;53.096;8.802;2023-04-06T04:13:36;0.60;99.90
20881;DHT22;10600;53.096;8.802;2023-04-06T04:14:37;0.60;99.90
20881;DHT22;10600;53.096;8.802;2023-04-06T04:15:38;0.60;99.90
20881;DHT22;10600;53.096;8.802;2023-04-06T04:16:38;0.50;99.90
20881;DHT22;10600;53.096;8.802;2023-04-06T04:17:39;0.50;99.90
20881;DHT22;10600;53.096;8.802;2023-04-06T04:18:40;0.50;99.90
20881;DHT22;10600;53.096;8.802;2023-04-06T04:19:43;0.40;99.90
20881;DHT22;10600;53.096;8.802;2023-04-06T04:20:44;0.40;99.90
20881;DHT22;10600;53.096;8.802;2023-04-06T04:21:46;0.40;99.90
20881;DHT22;10600;53.096;8.802;2023-04-06T04:22:47;0.30;99.90
20881;DHT22;10600;53.096;8.802;2023-04-06T04:23:51;0.30;99.90
20881;DHT22;10600;53.096;8.802;2023-04-06T04:24:53;0.20;99.90
20881;DHT22;10600;53.096;8.802;2023-04-06T04:25:54;0.20;99.90
20881;DHT22;10600;53.096;8.802;2023-04-06T04:26:54;0.20;99.90
20881;DHT22;10600;53.096;8.802;2023-04-06T04:27:55;0.20;99.90
20881;DHT22;10600;53.096;8.802;2023-04-06T04:28:56;0.20;99.90
20881;DHT22;10600;53.096;8.802;2023-04-06T04:29:57;0.20;99.90
20881;DHT22;10600;53.096;8.802;2023-04-06T04:30:57;0.20;99.90
20881;DHT22;10600;53.096;8.802;2023-04-06T04:31:58;0.20;99.90
20881;DHT22;10600;53.096;8.802;2023-04-06T04:32:59;0.20;99.90
20881;DHT22;10600;53.096;8.802;2023-04-06T04:33:59;0.20;99.90
20881;DHT22;10600;53.096;8.802;2023-04-06T04:35:00;0.20;99.90
20881;DHT22;10600;53.096;8.802;2023-04-06T04:36:01;0.30;99.90
20881;DHT22;10600;53.096;8.802;2023-04-06T04:37:02;0.30;99.90
20881;DHT22;10600;53.096;8.802;2023-04-06T04:38:02;0.30;99.90
20881;DHT22;10600;53.096;8.802;2023-04-06T04:39:03;0.30;99.90
20881;DHT22;10600;53.096;8.802;2023-04-06T04:40:04;0.30;99.90
20881;DHT22;10600;53.096;8.802;2023-04-06T04:41:05;0.30;99.90
20881;DHT22;10600;53.096;8.802;2023-04-06T04:42:06;0.40;99.90
20881;DHT22;10600;53.096;8.802;2023-04-06T04:43:06;0.40;99.90
20881;DHT22;10600;53.096;8.802;2023-04-06T04:44:07;0.50;99.90
20881;DHT22;10600;53.096;8.802;2023-04-06T04:45:08;0.50;99.90
20881;DHT22;10600;53.096;8.802;2023-04-06T04:46:09;0.50;99.90
20881;DHT22;10600;53.096;8.802;2023-04-06T04:47:09;0.60;99.90
20881;DHT22;10600;53.096;8.802;2023-04-06T04:48:10;0.60;99.90
20881;DHT22;10600;53.096;8.802;2023-04-06T04:49:11;0.60;99.90
20881;DHT22;10600;53.096;8.802;2023-04-06T04:50:12;0.60;99.90
20881;DHT22;10600;53.096;8.802;2023-04-06T04:51:12;0.60;99.90
20881;DHT22;10600;53.096;8.802;2023-04-06T04:52:13;0.70;99.90
20881;DHT22;10600;53.096;8.802;2023-04-06T04:53:13;0.70;99.90
20881;DHT22;10600;53.096;8.802;2023-04-06T04:54:14;0.70;99.90
20881;DHT22;10600;53.096;8.802;2023-04-06T04:55:15;0.70;99.90
20881;DHT22;10600;53.096;8.802;2023-04-06T04:56:16;0.70;99.90
20881;DHT22;10600;53.096;8.802;2023-04-06T04:57:17;0.70;99.90
20881;DHT22;10600;53.096;8.802;2023-04-06T04:58:17;0.60;99.90
20881;DHT22;10600;53.096;8.802;2023-04-06T04:59:20;0.60;99.90
20881;DHT22;10600;53.096;8.802;2023-04-06T05:00:20;0.60;99.90
20881;DHT22;10600;53.096;8.802;2023-04-06T05:01:21;0.60;99.90
20881;DHT22;10600;53.096;8.802;2023-04-06T05:02:22;0.60;99.90
20881;DHT22;10600;53.096;8.802;2023-04-06T05:03:24;0.50;99.90
20881;DHT22;10600;53.096;8.802;2023-04-06T05:04:25;0.50;99.90
20881;DHT22;10600;53.096;8.802;2023-04-06T05:05:26;0.50;99.90
20881;DHT22;10600;53.096;8.802;2023-04-06T05:06:27;0.50;99.90
20881;DHT22;10600;53.096;8.802;2023-04-06T05:07:27;0.50;99.90
20881;DHT22;10600;53.096;8.802;2023-04-06T05:08:28;0.40;99.90
20881;DHT22;10600;53.096;8.802;2023-04-06T05:09:32;0.40;99.90
20881;DHT22;10600;53.096;8.802;2023-04-06T05:10:33;0.40;99.90
20881;DHT22;10600;53.096;8.802;2023-04-06T05:11:35;0.40;99.90
20881;DHT22;10600;53.096;8.802;2023-04-06T05:12:35;0.40;99.90
20881;DHT22;10600;53.096;8.802;2023-04-06T05:13:36;0.40;99.90
20881;DHT22;10600;53.096;8.802;2023-04-06T05:14:37;0.40;99.90
20881;DHT22;10600;53.096;8.802;2023-04-06T05:15:37;0.40;99.90
20881;DHT22;10600;53.096;8.802;2023-04-06T05:16:38;0.40;99.90
20881;DHT22;10600;53.096;8.802;2023-04-06T05:17:39;0.40;99.90
20881;DHT22;10600;53.096;8.802;2023-04-06T05:18:40;0.40;99.90
20881;DHT22;10600;53.096;8.802;2023-04-06T05:19:40;0.40;99.90
20881;DHT22;10600;53.096;8.802;2023-04-06T05:20:42;0.40;99.90
20881;DHT22;10600;53.096;8.802;2023-04-06T05:21:43;0.40;99.90
20881;DHT22;10600;53.096;8.802;2023-04-06T05:22:43;0.40;99.90
20881;DHT22;10600;53.096;8.802;2023-04-06T05:23:44;0.50;99.90
20881;DHT22;10600;53.096;8.802;2023-04-06T05:24:45;0.50;99.90
20881;DHT22;10600;53.096;8.802;2023-04-06T05:25:46;0.50;99.90
20881;DHT22;10600;53.096;8.802;2023-04-06T05:26:46;0.60;99.90
20881;DHT22;10600;53.096;8.802;2023-04-06T05:27:47;0.60;99.90
20881;DHT22;10600;53.096;8.802;2023-04-06T05:28:48;0.60;99.90
20881;DHT22;10600;53.096;8.802;2023-04-06T05:29:48;0.70;99.90
20881;DHT22;10600;53.096;8.802;2023-04-06T05:30:49;0.70;99.90
20881;DHT22;10600;53.096;8.802;2023-04-06T05:31:51;0.70;99.90
20881;DHT22;10600;53.096;8.802;2023-04-06T05:32:52;0.70;99.90
20881;DHT22;10600;53.096;8.802;2023-04-06T05:33:52;0.80;99.90
20881;DHT22;10600;53.096;8.802;2023-04-06T05:34:53;0.80;99.90
20881;DHT22;10600;53.096;8.802;2023-04-06T05:35:54;0.80;99.90
20881;DHT22;10600;53.096;8.802;2023-04-06T05:36:54;0.90;99.90
20881;DHT22;10600;53.096;8.802;2023-04-06T05:37:55;0.90;99.90
20881;DHT22;10600;53.096;8.802;2023-04-06T05:38:56;0.90;99.90
20881;DHT22;10600;53.096;8.802;2023-04-06T05:39:56;0.90;99.90
20881;DHT22;10600;53.096;8.802;2023-04-06T05:40:57;1.00;99.90
20881;DHT22;10600;53.096;8.802;2023-04-06T05:41:58;1.00;99.90
20881;DHT22;10600;53.096;8.802;2023-04-06T05:42:59;1.00;99.90
20881;DHT22;10600;53.096;8.802;2023-04-06T05:44:00;1.10;99.90
20881;DHT22;10600;53.096;8.802;2023-04-06T05:45:00;1.10;99.90
20881;DHT22;10600;53.096;8.802;2023-04-06T05:46:01;1.20;99.90
20881;DHT22;10600;53.096;8.802;2023-04-06T05:47:03;1.20;99.90
20881;DHT22;10600;53.096;8.802;2023-04-06T05:48:04;1.40;99.90
20881;DHT22;10600;53.096;8.802;2023-04-06T05:49:05;1.40;99.90
20881;DHT22;10600;53.096;8.802;2023-04-06T05:50:06;1.40;99.90
20881;DHT22;10600;53.096;8.802;2023-04-06T05:51:06;1.40;99.90
20881;DHT22;10600;53.096;8.802;2023-04-06T05:52:08;1.50;99.90
20881;DHT22;10600;53.096;8.802;2023-04-06T05:53:09;1.50;99.90
20881;DHT22;10600;53.096;8.802;2023-04-06T05:54:09;1.60;99.90
20881;DHT22;10600;53.096;8.802;2023-04-06T05:55:10;1.60;99.90
20881;DHT22;10600;53.096;8.802;2023-04-06T05:56:11;1.70;99.90
20881;DHT22;10600;53.096;8.802;2023-04-06T05:57:12;1.70;99.90
20881;DHT22;10600;53.096;8.802;2023-04-06T05:58:13;1.80;99.90
20881;DHT22;10600;53.096;8.802;2023-04-06T05:59:13;1.80;99.90
20881;DHT22;10600;53.096;8.802;2023-04-06T06:00:14;1.80;99.90
20881;DHT22;10600;53.096;8.802;2023-04-06T06:01:15;1.90;99.90
20881;DHT22;10600;53.096;8.802;2023-04-06T06:02:16;1.90;99.90
20881;DHT22;10600;53.096;8.802;2023-04-06T06:03:16;1.90;99.90
20881;DHT22;10600;53.096;8.802;2023-04-06T06:04:17;1.90;99.90
20881;DHT22;10600;53.096;8.802;2023-04-06T06:05:18;2.00;99.90
20881;DHT22;10600;53.096;8.802;2023-04-06T06:06:18;2.00;99.90
20881;DHT22;10600;53.096;8.802;2023-04-06T06:07:19;2.00;99.90
20881;DHT22;10600;53.096;8.802;2023-04-06T06:08:20;2.10;99.90
20881;DHT22;10600;53.096;8.802;2023-04-06T06:09:20;2.10;99.90
20881;DHT22;10600;53.096;8.802;2023-04-06T06:10:21;2.20;99.90
20881;DHT22;10600;53.096;8.802;2023-04-06T06:11:22;2.20;99.90
20881;DHT22;10600;53.096;8.802;2023-04-06T06:12:22;2.20;99.90
20881;DHT22;10600;53.096;8.802;2023-04-06T06:13:23;2.30;99.90
20881;DHT22;10600;53.096;8.802;2023-04-06T06:14:24;2.40;99.90
20881;DHT22;10600;53.096;8.802;2023-04-06T06:15:25;2.40;99.90
20881;DHT22;10600;53.096;8.802;2023-04-06T06:16:26;2.40;99.90
20881;DHT22;10600;53.096;8.802;2023-04-06T06:17:27;2.50;99.90
20881;DHT22;10600;53.096;8.802;2023-04-06T06:18:27;2.50;99.90
20881;DHT22;10600;53.096;8.802;2023-04-06T06:19:28;2.60;99.90
20881;DHT22;10600;53.096;8.802;2023-04-06T06:20:29;2.60;99.90
20881;DHT22;10600;53.096;8.802;2023-04-06T06:21:29;2.70;99.90
20881;DHT22;10600;53.096;8.802;2023-04-06T06:22:31;2.70;99.90
20881;DHT22;10600;53.096;8.802;2023-04-06T06:23:32;2.80;99.90
20881;DHT22;10600;53.096;8.802;2023-04-06T06:24:33;2.80;99.90
20881;DHT22;10600;53.096;8.802;2023-04-06T06:25:33;2.90;99.90
20881;DHT22;10600;53.096;8.802;2023-04-06T06:26:34;2.90;99.90
20881;DHT22;10600;53.096;8.802;2023-04-06T06:27:37;2.90;99.90
20881;DHT22;10600;53.096;8.802;2023-04-06T06:28:38;3.00;99.90
20881;DHT22;10600;53.096;8.802;2023-04-06T06:29:38;3.00;99.90
20881;DHT22;10600;53.096;8.802;2023-04-06T06:30:39;3.10;99.90